Latest Weather Observations for Thevenard

IDS60801

Issued at 9:31 pm CST Saturday 5 September 2015 (issued every 30 minutes, with the page automatically refreshed every 10 minutes)

About weather observations | Map of weather stations | Latest weather observations for SA | Other Formats
Station Details ID: 018200 Name: THEVENARD WIND Lat: -32.18 Lon: 133.63 Height: 8.54 m
Data from the previous 72 hours. | See also: Recent months for locations in South Australia
Date/Time
CST
Temp
°C
App
Temp
°C
Dew
Point
Rel
Hum
%
Delta-T
°C
Wind Press
QNH
hPa
Press
MSL
hPa
Rain
since 9 am
mm
Dir
 
Spd
km/h
Gust
km/h
Spd
kts
Gust
kts
05/09:30pm - - - - - NE 13 17 7 9 - - -
05/09:00pm - - - - - ENE 13 15 7 8 - - -
05/08:30pm - - - - - NE 17 19 9 10 - - -
05/08:00pm - - - - - NE 20 20 11 11 - - -
05/07:30pm - - - - - NE 15 17 8 9 - - -
05/07:00pm - - - - - NE 11 13 6 7 - - -
05/06:30pm - - - - - NE 15 17 8 9 - - -
05/06:00pm - - - - - NNE 15 17 8 9 - - -
05/05:30pm - - - - - NNE 15 19 8 10 - - -
05/05:00pm - - - - - NNE 17 20 9 11 - - -
05/04:30pm - - - - - NNE 17 20 9 11 - - -
05/04:00pm - - - - - NNE 17 20 9 11 - - -
05/03:30pm - - - - - N 17 19 9 10 - - -
05/03:00pm - - - - - NNE 20 22 11 12 - - -
05/02:30pm - - - - - NNE 19 22 10 12 - - -
05/02:00pm - - - - - NNE 20 24 11 13 - - -
05/01:30pm - - - - - NNE 22 26 12 14 - - -
05/01:00pm - - - - - NNE 28 33 15 18 - - -
05/12:30pm - - - - - NNE 26 33 14 18 - - -
05/12:00pm - - - - - NNE 33 41 18 22 - - -
05/11:30am - - - - - NNE 35 44 19 24 - - -
05/11:00am - - - - - NNE 33 43 18 23 - - -
05/10:30am - - - - - NNE 28 32 15 17 - - -
05/10:00am - - - - - NNE 32 39 17 21 - - -
05/09:30am - - - - - NNE 33 41 18 22 - - -
05/09:00am - - - - - NNE 30 37 16 20 - - -
05/08:30am - - - - - NNE 26 32 14 17 - - -
05/08:00am - - - - - NNE 26 32 14 17 - - -
05/07:30am - - - - - NNE 24 33 13 18 - - -
05/07:00am - - - - - NNE 26 35 14 19 - - -
05/06:30am - - - - - NNE 24 30 13 16 - - -
05/06:00am - - - - - NE 24 30 13 16 - - -
05/05:30am - - - - - NNE 22 26 12 14 - - -
05/05:00am - - - - - NNE 26 32 14 17 - - -
05/04:30am - - - - - NNE 22 26 12 14 - - -
05/04:00am - - - - - NNE 19 24 10 13 - - -
05/03:30am - - - - - NNE 20 26 11 14 - - -
05/03:00am - - - - - NNE 19 20 10 11 - - -
05/02:30am - - - - - N 15 19 8 10 - - -
05/02:00am - - - - - NNE 7 11 4 6 - - -
05/01:30am - - - - - NE 9 11 5 6 - - -
05/01:00am - - - - - NE 7 11 4 6 - - -
05/12:30am - - - - - NE 9 13 5 7 - - -
05/12:00am - - - - - NE 11 13 6 7 - - -
 
Date/Time
CST
Temp
°C
App
Temp
°C
Dew
Point
Rel
Hum
%
Delta-T
°C
Wind Press
QNH
hPa
Press
MSL
hPa
Rain
since 9 am
mm
Dir
 
Spd
km/h
Gust
km/h
Spd
kts
Gust
kts
04/11:30pm - - - - - ENE 17 19 9 10 - - -
04/11:00pm - - - - - E 17 22 9 12 - - -
04/10:30pm - - - - - E 15 19 8 10 - - -
04/10:00pm - - - - - E 15 20 8 11 - - -
04/09:30pm - - - - - ESE 20 26 11 14 - - -
04/09:00pm - - - - - ESE 19 24 10 13 - - -
04/08:30pm - - - - - SE 20 24 11 13 - - -
04/08:00pm - - - - - SE 22 26 12 14 - - -
04/07:30pm - - - - - SSE 24 28 13 15 - - -
04/07:00pm - - - - - SSE 24 26 13 14 - - -
04/06:30pm - - - - - SSE 22 26 12 14 - - -
04/06:00pm - - - - - SSE 22 26 12 14 - - -
04/05:30pm - - - - - SSE 24 26 13 14 - - -
04/05:00pm - - - - - SSE 24 28 13 15 - - -
04/04:30pm - - - - - SSE 24 28 13 15 - - -
04/04:00pm - - - - - SSE 24 26 13 14 - - -
04/03:30pm - - - - - SSE 22 24 12 13 - - -
04/03:00pm - - - - - SSE 20 24 11 13 - - -
04/02:30pm - - - - - SSE 13 17 7 9 - - -
04/02:00pm - - - - - SSE 13 15 7 8 - - -
04/01:30pm - - - - - SSE 9 11 5 6 - - -
04/01:00pm - - - - - S 9 11 5 6 - - -
04/12:30pm - - - - - S 9 11 5 6 - - -
04/12:00pm - - - - - S 9 11 5 6 - - -
04/11:30am - - - - - S 6 7 3 4 - - -
04/11:00am - - - - - ESE 6 7 3 4 - - -
04/10:30am - - - - - ENE 7 9 4 5 - - -
04/10:00am - - - - - ENE 9 11 5 6 - - -
04/09:30am - - - - - ENE 9 13 5 7 - - -
04/09:00am - - - - - E 11 13 6 7 - - -
04/08:30am - - - - - E 13 17 7 9 - - -
04/08:00am - - - - - E 15 17 8 9 - - -
04/07:30am - - - - - ESE 9 13 5 7 - - -

Other Formats:

Comma delimited format used in spreadsheet applications
http://www.bom.gov.au/fwo/IDS60801/IDS60801.95653.axf

JavaScript Object Notation format (JSON) in row-major order
http://www.bom.gov.au/fwo/IDS60801/IDS60801.95653.json